Time;durP1;ratioP1;P1;durP2;ratioP2;P2;SDS_P1;SDS_P2;PMS_P1;PMS_P2;Temp;Humidity;BMP_temperature;BMP_pressure;BME280_temperature;BME280_humidity;BME280_pressure;Samples;Min_cycle;Max_cycle;Signal;HPM_P1;HPM_P2
2023/04/25 00:03:18;;;;;;;12.30;7.40;;;23.90;64.00;;;;;;222292;1254;24215;-49
2023/04/25 00:08:22;;;;;;;9.50;7.30;;;23.90;64.30;;;;;;222058;1263;22514;-47
2023/04/25 00:13:27;;;;;;;10.40;7.40;;;23.90;64.90;;;;;;222318;1263;22551;-48
2023/04/25 00:18:33;;;;;;;11.70;7.40;;;23.90;64.70;;;;;;222475;1266;22777;-47
2023/04/25 00:23:38;;;;;;;9.60;7.40;;;23.80;64.90;;;;;;222192;1266;24212;-47
2023/04/25 00:28:42;;;;;;;10.30;6.70;;;23.80;65.10;;;;;;222604;1260;24241;-49
2023/04/25 00:33:47;;;;;;;8.50;6.60;;;23.80;65.10;;;;;;222346;1266;22535;-51
2023/04/25 00:38:54;;;;;;;9.30;6.80;;;23.80;65.20;;;;;;222371;1253;24248;-49
2023/04/25 00:44:00;;;;;;;8.70;7.30;;;23.80;65.30;;;;;;222383;1264;25607;-47
2023/04/25 00:49:04;;;;;;;11.10;7.80;;;23.80;65.30;;;;;;222391;1263;23971;-49
2023/04/25 00:54:08;;;;;;;8.20;6.60;;;23.90;65.60;;;;;;222181;1260;22504;-46
2023/04/25 00:59:13;;;;;;;7.40;6.60;;;23.80;65.70;;;;;;222488;1257;23905;-49
2023/04/25 01:04:17;;;;;;;7.30;6.40;;;23.90;65.40;;;;;;222394;1267;24181;-50
2023/04/25 01:09:23;;;;;;;7.90;6.90;;;23.90;65.20;;;;;;222258;1263;25617;-49
2023/04/25 01:14:27;;;;;;;7.90;6.50;;;24.00;64.70;;;;;;222422;1263;22679;-53
2023/04/25 01:19:31;;;;;;;9.20;6.70;;;24.00;64.70;;;;;;222222;1269;22512;-46
2023/04/25 01:24:35;;;;;;;9.60;6.60;;;23.90;65.50;;;;;;222098;1262;22562;-51
2023/04/25 01:29:40;;;;;;;7.10;5.90;;;23.80;65.40;;;;;;222053;1269;23921;-48
2023/04/25 01:34:44;;;;;;;7.20;6.20;;;23.70;64.80;;;;;;222303;1266;23890;-52
2023/04/25 01:39:49;;;;;;;8.30;6.10;;;23.70;64.90;;;;;;222529;1267;24188;-50
2023/04/25 01:44:54;;;;;;;6.20;5.20;;;23.60;64.90;;;;;;222597;1253;23129;-51
2023/04/25 01:49:58;;;;;;;7.20;5.50;;;23.60;65.00;;;;;;222459;1267;22762;-53
2023/04/25 01:55:03;;;;;;;6.60;5.40;;;23.50;64.90;;;;;;222667;1264;24212;-50
2023/04/25 02:00:10;;;;;;;6.90;5.40;;;23.50;64.90;;;;;;222532;1254;22505;-47
2023/04/25 02:05:17;;;;;;;6.00;5.20;;;23.50;64.90;;;;;;222864;1264;22619;-49
2023/04/25 02:10:21;;;;;;;5.70;5.10;;;23.50;64.60;;;;;;222642;1262;22620;-48
2023/04/25 02:15:46;;;;;;;7.70;5.60;;;23.40;65.00;;;;;;222334;1257;22527;-56
2023/04/25 02:20:53;;;;;;;6.60;5.00;;;23.40;65.10;;;;;;222595;1264;22511;-48
2023/04/25 02:25:57;;;;;;;6.40;5.30;;;23.40;64.40;;;;;;222202;1263;22624;-47
2023/04/25 02:31:01;;;;;;;6.10;5.00;;;23.40;65.20;;;;;;222355;1264;22536;-51
2023/04/25 02:36:07;;;;;;;4.80;4.30;;;23.40;64.80;;;;;;222624;1269;25277;-49
2023/04/25 02:41:11;;;;;;;5.10;4.30;;;23.30;64.70;;;;;;222760;1256;22627;-50
2023/04/25 02:46:16;;;;;;;5.20;4.60;;;23.30;64.80;;;;;;222289;1266;22518;-51
2023/04/25 02:51:32;;;;;;;5.60;4.10;;;23.30;64.70;;;;;;222926;1263;22618;-46
2023/04/25 02:56:36;;;;;;;5.70;4.40;;;23.30;64.60;;;;;;223430;1266;22566;-47
2023/04/25 03:01:42;;;;;;;6.50;5.00;;;23.30;64.80;;;;;;222912;1263;24034;-47
2023/04/25 03:06:47;;;;;;;4.80;4.30;;;23.30;64.50;;;;;;222113;1267;22523;-49
2023/04/25 03:11:51;;;;;;;5.20;4.20;;;23.20;64.60;;;;;;222065;1258;22716;-46
2023/04/25 03:16:55;;;;;;;4.90;4.40;;;23.10;64.70;;;;;;222010;1266;22511;-48
2023/04/25 03:22:00;;;;;;;4.80;3.90;;;23.10;64.70;;;;;;222377;1269;22940;-49
2023/04/25 03:27:05;;;;;;;5.30;4.30;;;23.10;64.70;;;;;;222314;1264;24193;-49
2023/04/25 03:32:09;;;;;;;5.00;4.40;;;23.10;64.70;;;;;;222267;1266;22554;-52
2023/04/25 03:37:13;;;;;;;4.40;4.00;;;23.10;64.60;;;;;;222128;1269;25449;-47
2023/04/25 03:42:19;;;;;;;3.60;3.30;;;23.00;64.60;;;;;;222090;1263;24043;-50
2023/04/25 03:47:24;;;;;;;4.10;3.70;;;23.00;64.80;;;;;;222449;1266;23892;-50
2023/04/25 03:52:28;;;;;;;5.70;3.60;;;23.00;64.50;;;;;;222293;1266;22512;-50
2023/04/25 03:57:33;;;;;;;4.80;3.40;;;23.00;64.80;;;;;;222127;1269;22512;-47
2023/04/25 04:02:38;;;;;;;4.90;3.80;;;23.00;64.40;;;;;;222093;1269;22511;-50
2023/04/25 04:07:46;;;;;;;5.10;3.50;;;22.90;64.50;;;;;;222490;1263;23123;-49
2023/04/25 04:12:52;;;;;;;3.80;3.40;;;22.90;64.40;;;;;;222302;1269;25482;-47
2023/04/25 04:17:57;;;;;;;5.20;3.60;;;22.90;64.40;;;;;;222332;1264;24060;-49
2023/04/25 04:23:01;;;;;;;4.30;3.90;;;22.90;64.40;;;;;;222376;1269;22510;-50
2023/04/25 04:28:06;;;;;;;3.70;3.40;;;22.90;64.70;;;;;;222332;1266;22526;-54
2023/04/25 04:33:30;;;;;;;3.60;3.30;;;23.00;64.70;;;;;;222399;1263;22512;-51
2023/04/25 04:38:40;;;;;;;3.20;3.00;;;23.30;63.90;;;;;;222411;1269;22511;-47
2023/04/25 04:43:50;;;;;;;3.00;2.70;;;23.60;63.00;;;;;;222550;1264;22522;-51
2023/04/25 04:49:06;;;;;;;3.30;3.00;;;23.80;62.30;;;;;;222530;1269;22508;-53
2023/04/25 04:54:19;;;;;;;3.20;2.90;;;23.90;62.10;;;;;;222341;1269;22733;-52
2023/04/25 04:59:40;;;;;;;3.00;2.70;;;24.00;62.00;;;;;;221152;1272;22569;-52
2023/04/25 05:05:24;;;;;;;3.00;2.80;;;24.00;61.70;;;;;;220297;1272;22530;-47
2023/04/25 05:10:46;;;;;;;2.90;2.70;;;24.10;61.30;;;;;;221255;1272;22521;-52
2023/04/25 05:16:14;;;;;;;2.80;2.60;;;24.20;61.20;;;;;;221670;1264;22553;-51
2023/04/25 05:21:29;;;;;;;3.40;2.20;;;24.20;61.00;;;;;;222019;1269;22546;-49
2023/04/25 05:26:52;;;;;;;2.40;2.20;;;24.20;61.10;;;;;;221981;1266;24364;-46
2023/04/25 05:32:24;;;;;;;2.70;2.50;;;24.20;61.20;;;;;;222101;1263;24968;-47
2023/04/25 05:37:30;;;;;;;2.80;2.60;;;24.20;61.20;;;;;;222033;1247;24242;-46
2023/04/25 05:42:44;;;;;;;3.00;2.70;;;24.20;61.20;;;;;;221899;1263;22637;-50
2023/04/25 05:47:57;;;;;;;3.30;2.20;;;24.10;61.40;;;;;;222293;1247;23885;-50
2023/04/25 05:53:33;;;;;;;2.80;2.50;;;24.10;61.50;;;;;;222103;1263;23887;-47
2023/04/25 05:58:38;;;;;;;3.60;2.70;;;24.10;62.10;;;;;;222315;1263;25465;-49
2023/04/25 06:03:43;;;;;;;5.80;2.80;;;24.10;62.20;;;;;;222229;1263;24307;-48
2023/04/25 06:08:48;;;;;;;5.50;2.30;;;24.10;62.30;;;;;;221981;1263;22554;-49
2023/04/25 06:13:52;;;;;;;3.40;2.70;;;24.10;62.60;;;;;;222057;1259;22527;-52
2023/04/25 06:18:56;;;;;;;5.90;2.40;;;24.10;62.30;;;;;;222533;1264;22758;-47
2023/04/25 06:24:02;;;;;;;4.10;2.60;;;24.10;62.60;;;;;;222393;1263;24175;-47
2023/04/25 06:29:09;;;;;;;4.50;2.10;;;24.10;62.40;;;;;;222448;1256;163081;-50
2023/04/25 06:34:13;;;;;;;5.30;2.20;;;24.10;62.50;;;;;;222188;1261;23144;-48
2023/04/25 06:39:19;;;;;;;4.30;2.40;;;24.10;62.50;;;;;;222453;1262;22522;-46
2023/04/25 06:44:26;;;;;;;7.50;2.20;;;24.10;62.60;;;;;;222312;1266;25210;-51
2023/04/25 06:49:31;;;;;;;10.80;3.00;;;24.00;62.80;;;;;;222268;1251;24235;-50
2023/04/25 06:54:39;;;;;;;7.20;3.20;;;24.00;63.00;;;;;;222004;1264;22527;-54
2023/04/25 06:59:57;;;;;;;9.00;3.30;;;24.10;62.30;;;;;;222520;1248;23881;-46
2023/04/25 07:05:05;;;;;;;15.50;2.50;;;24.30;62.10;;;;;;222200;1258;22508;-46
2023/04/25 07:10:09;;;;;;;11.10;2.20;;;24.30;62.00;;;;;;222119;1254;22630;-45
2023/04/25 07:15:14;;;;;;;4.30;2.20;;;24.30;61.90;;;;;;223131;1266;22525;-48
2023/04/25 07:20:20;;;;;;;4.20;2.20;;;24.30;61.80;;;;;;222340;1264;25556;-47
2023/04/25 07:25:25;;;;;;;4.20;2.70;;;24.20;61.70;;;;;;222411;1263;23618;-46
2023/04/25 07:30:29;;;;;;;6.60;2.60;;;24.30;61.80;;;;;;222054;1263;22518;-47
2023/04/25 07:35:33;;;;;;;5.00;2.30;;;24.20;62.00;;;;;;222231;1267;22691;-47
2023/04/25 07:40:37;;;;;;;5.60;2.20;;;24.10;61.90;;;;;;222138;1264;22512;-48
2023/04/25 07:45:45;;;;;;;6.00;2.30;;;24.00;62.20;;;;;;222286;1264;22613;-47
2023/04/25 07:50:50;;;;;;;3.10;2.20;;;23.90;62.30;;;;;;222073;1254;22563;-47
2023/04/25 07:55:52;;;;;;;6.40;2.50;;;23.80;62.20;;;;;;221989;1258;22678;-46
2023/04/25 08:00:57;;;;;;;3.00;1.90;;;23.80;62.50;;;;;;222311;1263;22507;-48
2023/04/25 08:06:22;;;;;;;5.00;2.20;;;23.80;62.30;;;;;;222252;1263;24002;-49
2023/04/25 08:11:43;;;;;;;6.40;2.10;;;23.80;62.70;;;;;;222109;1258;23911;-49
2023/04/25 08:16:48;;;;;;;6.70;2.40;;;23.80;62.70;;;;;;222037;1263;23307;-47
2023/04/25 08:21:55;;;;;;;8.60;2.50;;;23.70;62.80;;;;;;222049;1269;24238;-51
2023/04/25 08:27:06;;;;;;;6.80;2.20;;;23.80;63.10;;;;;;222382;1254;22700;-48
2023/04/25 08:32:11;;;;;;;18.80;3.00;;;23.70;62.80;;;;;;222157;1254;25271;-49
2023/04/25 08:37:19;;;;;;;49.50;20.90;;;23.70;63.10;;;;;;222179;1260;22540;-47
2023/04/25 08:42:36;;;;;;;121.20;48.50;;;23.70;62.80;;;;;;222358;1254;26612;-47
2023/04/25 08:47:43;;;;;;;167.90;71.20;;;23.70;62.70;;;;;;222407;1254;22564;-52
2023/04/25 08:52:50;;;;;;;203.60;84.50;;;23.70;63.20;;;;;;222487;1254;24221;-49
2023/04/25 08:57:56;;;;;;;177.30;70.90;;;23.60;62.70;;;;;;222344;1253;22514;-47
2023/04/25 09:03:00;;;;;;;158.70;66.50;;;23.60;62.90;;;;;;222223;1264;23145;-48
2023/04/25 09:08:07;;;;;;;147.00;62.30;;;23.60;62.50;;;;;;222285;1248;23245;-46
2023/04/25 09:13:17;;;;;;;150.90;58.10;;;23.60;62.40;;;;;;222366;1255;22522;-49
2023/04/25 09:18:57;;;;;;;147.90;59.70;;;23.60;62.40;;;;;;221870;1254;24185;-48
2023/04/25 09:24:02;;;;;;;146.30;62.30;;;23.60;63.20;;;;;;222580;1255;24008;-54
2023/04/25 09:29:08;;;;;;;130.80;56.30;;;23.70;65.40;;;;;;222432;1261;24219;-53
2023/04/25 09:34:16;;;;;;;118.80;53.00;;;23.70;65.00;;;;;;222322;1254;23098;-58
2023/04/25 09:39:28;;;;;;;126.30;53.10;;;23.70;64.50;;;;;;222174;1257;24195;-54
2023/04/25 09:44:45;;;;;;;126.60;51.40;;;23.70;63.90;;;;;;222086;1257;22540;-58
2023/04/25 09:49:51;;;;;;;107.30;49.90;;;23.70;63.80;;;;;;222214;1254;26733;-54
2023/04/25 09:54:58;;;;;;;95.20;45.70;;;23.70;63.50;;;;;;222189;1254;24856;-60
2023/04/25 10:00:12;;;;;;;104.00;46.90;;;23.70;63.30;;;;;;222156;1254;22634;-59
2023/04/25 10:05:19;;;;;;;93.00;43.00;;;23.70;63.20;;;;;;222135;1262;24383;-53
2023/04/25 10:10:27;;;;;;;92.60;43.40;;;23.70;63.20;;;;;;222110;1256;22528;-57
2023/04/25 10:15:38;;;;;;;91.30;43.00;;;23.70;63.10;;;;;;222242;1261;22531;-58
2023/04/25 10:20:43;;;;;;;90.10;43.80;;;23.70;63.00;;;;;;222219;1254;24358;-58
2023/04/25 10:25:48;;;;;;;78.50;40.00;;;23.70;62.90;;;;;;222464;1260;24295;-52
2023/04/25 10:31:04;;;;;;;78.10;38.20;;;23.80;62.80;;;;;;222201;1257;22655;-56
2023/04/25 10:36:18;;;;;;;77.00;37.10;;;23.70;62.60;;;;;;222236;1260;22522;-54
2023/04/25 10:41:22;;;;;;;71.00;35.90;;;23.70;62.80;;;;;;221968;1259;22614;-50
2023/04/25 10:46:30;;;;;;;78.10;35.90;;;23.80;62.40;;;;;;224529;1253;22522;-54
2023/04/25 10:51:36;;;;;;;71.10;33.80;;;23.80;62.00;;;;;;222062;1261;25284;-53
2023/04/25 10:56:58;;;;;;;63.50;32.00;;;23.80;62.10;;;;;;222379;1257;22507;-48
2023/04/25 11:02:12;;;;;;;57.20;30.30;;;23.80;62.00;;;;;;222283;1253;23010;-53
2023/04/25 11:07:45;;;;;;;62.30;28.80;;;23.80;61.50;;;;;;222510;1253;23934;-53
2023/04/25 11:13:03;;;;;;;51.30;26.60;;;23.90;62.00;;;;;;222110;1256;25367;-51
2023/04/25 11:18:07;;;;;;;50.90;26.60;;;23.90;61.80;;;;;;222134;1254;22514;-53
2023/04/25 11:23:15;;;;;;;45.50;25.00;;;23.90;61.70;;;;;;221781;1253;22590;-50
2023/04/25 11:28:23;;;;;;;48.00;26.40;;;23.90;61.70;;;;;;222060;1254;22523;-51
2023/04/25 11:33:30;;;;;;;46.50;24.00;;;23.90;61.30;;;;;;222234;1260;23876;-54
2023/04/25 11:38:34;;;;;;;50.10;22.40;;;23.90;61.40;;;;;;222307;1253;25277;-53
2023/04/25 11:43:38;;;;;;;30.90;15.30;;;23.90;59.60;;;;;;222106;1254;22520;-49
2023/04/25 11:48:46;;;;;;;21.90;12.30;;;23.70;55.60;;;;;;222151;1254;22832;-52
2023/04/25 11:53:51;;;;;;;17.10;10.70;;;23.60;51.60;;;;;;221981;1260;22524;-52
2023/04/25 11:59:03;;;;;;;15.00;8.60;;;23.80;50.30;;;;;;222132;1253;22508;-51
2023/04/25 12:04:11;;;;;;;;;;;24.00;48.00;;;;;;221933;1257;22580;-51
2023/04/25 12:09:23;;;;;;;17.20;9.10;;;24.10;48.40;;;;;;222228;1254;24000;-53
2023/04/25 12:14:29;;;;;;;18.50;8.80;;;24.30;49.80;;;;;;222306;1263;25284;-51
2023/04/25 12:19:35;;;;;;;20.60;8.80;;;24.50;50.70;;;;;;221882;1250;22529;-51
2023/04/25 12:24:39;;;;;;;12.80;7.90;;;24.60;51.40;;;;;;222247;1256;22774;-49
2023/04/25 12:29:52;;;;;;;22.60;11.20;;;24.70;51.60;;;;;;222394;1253;22514;-50
2023/04/25 12:34:56;;;;;;;55.40;25.50;;;24.70;51.90;;;;;;222975;1253;23911;-53
2023/04/25 12:40:00;;;;;;;84.30;38.70;;;24.70;52.00;;;;;;222434;1260;22520;-50
2023/04/25 12:45:06;;;;;;;132.70;56.30;;;24.70;52.10;;;;;;222301;1257;22518;-49
2023/04/25 12:50:12;;;;;;;129.90;59.50;;;24.70;52.50;;;;;;222493;1254;22536;-53
2023/04/25 12:55:16;;;;;;;124.00;54.70;;;24.70;52.50;;;;;;222298;1256;22517;-50
2023/04/25 13:00:21;;;;;;;116.70;52.50;;;24.70;52.80;;;;;;222324;1254;25265;-49
2023/04/25 13:05:25;;;;;;;109.30;51.60;;;24.70;53.30;;;;;;222209;1253;23006;-53
2023/04/25 13:10:29;;;;;;;108.50;51.80;;;24.70;53.60;;;;;;222219;1253;24269;-51
2023/04/25 13:15:33;;;;;;;98.20;49.70;;;24.70;54.20;;;;;;222159;1257;22650;-48
2023/04/25 13:20:37;;;;;;;100.60;46.00;;;24.60;54.90;;;;;;222325;1256;22620;-49
2023/04/25 13:25:41;;;;;;;91.20;45.10;;;24.70;54.90;;;;;;222520;1250;22530;-47
2023/04/25 13:30:47;;;;;;;87.80;42.70;;;24.60;55.10;;;;;;222243;1260;22540;-51
2023/04/25 13:35:56;;;;;;;93.70;42.40;;;24.60;55.00;;;;;;222576;1254;24186;-47
2023/04/25 13:41:00;;;;;;;84.20;39.90;;;24.50;55.10;;;;;;222317;1253;24340;-48
2023/04/25 13:46:05;;;;;;;80.10;40.30;;;24.50;55.40;;;;;;222238;1260;25476;-48
2023/04/25 13:51:09;;;;;;;77.80;38.30;;;24.50;55.80;;;;;;222275;1260;22518;-48
2023/04/25 13:56:12;;;;;;;74.30;37.30;;;24.50;56.10;;;;;;222242;1253;22564;-48
2023/04/25 14:01:17;;;;;;;76.40;36.60;;;24.50;55.80;;;;;;222288;1262;22638;-50
2023/04/25 14:06:23;;;;;;;70.60;36.10;;;24.50;56.40;;;;;;222228;1260;23912;-49
2023/04/25 14:11:27;;;;;;;72.60;35.00;;;24.40;55.90;;;;;;222554;1254;24460;-49
2023/04/25 14:16:32;;;;;;;79.60;36.50;;;24.50;56.40;;;;;;222300;1253;22697;-50
2023/04/25 14:21:36;;;;;;;72.60;34.80;;;24.50;57.00;;;;;;222016;1257;25277;-47
2023/04/25 14:26:41;;;;;;;73.20;33.00;;;24.50;56.70;;;;;;222223;1253;22527;-47
2023/04/25 14:31:45;;;;;;;72.00;33.80;;;24.30;58.00;;;;;;222549;1253;22698;-48
2023/04/25 14:36:50;;;;;;;62.00;31.10;;;24.30;58.60;;;;;;222127;1256;22534;-48
2023/04/25 14:41:54;;;;;;;70.30;32.10;;;24.30;57.60;;;;;;222370;1263;23936;-51
2023/04/25 14:46:58;;;;;;;60.20;29.20;;;24.40;58.50;;;;;;222247;1254;22543;-47
2023/04/25 14:52:02;;;;;;;51.60;27.60;;;24.30;60.10;;;;;;222442;1250;22804;-52
2023/04/25 14:57:07;;;;;;;51.50;26.60;;;24.30;58.10;;;;;;222730;1251;25191;-48
2023/04/25 15:02:11;;;;;;;51.00;25.40;;;24.20;59.00;;;;;;222328;1254;24157;-55
2023/04/25 15:07:15;;;;;;;52.30;24.00;;;24.20;58.70;;;;;;222425;1253;22563;-50
2023/04/25 15:12:21;;;;;;;50.50;23.10;;;24.20;58.80;;;;;;222358;1253;24312;-49
2023/04/25 15:17:25;;;;;;;44.60;23.10;;;24.10;58.80;;;;;;221956;1259;25315;-51
2023/04/25 15:22:29;;;;;;;43.70;22.60;;;24.10;58.60;;;;;;222139;1260;23911;-50
2023/04/25 15:27:37;;;;;;;42.10;21.10;;;24.10;58.70;;;;;;222365;1250;25101;-48
2023/04/25 15:32:42;;;;;;;39.70;21.00;;;24.10;59.10;;;;;;223293;1260;24270;-49
2023/04/25 15:37:46;;;;;;;36.10;19.40;;;24.10;58.50;;;;;;222186;1253;23579;-50
2023/04/25 15:42:51;;;;;;;40.40;19.30;;;24.00;58.60;;;;;;222393;1263;25334;-54
2023/04/25 15:47:56;;;;;;;42.40;20.00;;;24.10;59.30;;;;;;222334;1257;24222;-53
2023/04/25 15:53:00;;;;;;;44.20;19.90;;;24.10;58.30;;;;;;222253;1245;22531;-56
2023/04/25 15:58:04;;;;;;;30.10;17.80;;;24.00;58.40;;;;;;222086;1264;25128;-54
2023/04/25 16:03:09;;;;;;;33.70;16.80;;;23.90;58.10;;;;;;222076;1253;24246;-49
2023/04/25 16:08:16;;;;;;;27.80;16.50;;;23.90;58.00;;;;;;229923;1263;22520;-48
2023/04/25 16:13:21;;;;;;;28.20;16.40;;;24.10;58.10;;;;;;222102;1246;24234;-46
2023/04/25 16:18:26;;;;;;;28.30;16.20;;;24.10;57.10;;;;;;222212;1250;25410;-50
2023/04/25 16:23:30;;;;;;;30.90;15.50;;;24.00;57.70;;;;;;222177;1257;25381;-48
2023/04/25 16:28:34;;;;;;;28.60;16.00;;;24.00;57.50;;;;;;222346;1261;22618;-48
2023/04/25 16:33:39;;;;;;;28.90;15.00;;;23.90;57.90;;;;;;222286;1257;23876;-54
2023/04/25 16:38:43;;;;;;;26.40;14.00;;;23.70;58.10;;;;;;230153;1263;23093;-52
2023/04/25 16:43:47;;;;;;;23.10;14.20;;;23.90;57.90;;;;;;230128;1253;22122;-53
2023/04/25 16:48:53;;;;;;;36.10;14.60;;;24.10;57.40;;;;;;225162;1266;25213;-53
2023/04/25 16:54:01;;;;;;;31.80;14.00;;;24.10;57.20;;;;;;222617;1261;24218;-51
2023/04/25 16:59:05;;;;;;;22.10;13.40;;;23.90;57.50;;;;;;222161;1265;22772;-52
2023/04/25 17:04:10;;;;;;;21.60;12.20;;;23.70;58.30;;;;;;222324;1260;25265;-52
2023/04/25 17:09:16;;;;;;;22.30;12.80;;;23.60;58.60;;;;;;222123;1264;22550;-55
2023/04/25 17:14:20;;;;;;;19.20;10.90;;;23.70;59.10;;;;;;222529;1261;22623;-50
2023/04/25 17:19:25;;;;;;;19.40;11.80;;;23.70;58.50;;;;;;222362;1263;24237;-52
2023/04/25 17:24:29;;;;;;;20.70;11.80;;;23.80;57.80;;;;;;221963;1266;25347;-54
2023/04/25 17:29:34;;;;;;;19.40;10.80;;;23.80;57.60;;;;;;222225;1261;22639;-53
2023/04/25 17:34:41;;;;;;;20.50;10.40;;;23.70;57.70;;;;;;222247;1269;24400;-54
2023/04/25 17:39:48;;;;;;;20.20;10.90;;;23.60;58.40;;;;;;222284;1265;22511;-55
2023/04/25 17:44:54;;;;;;;18.00;10.10;;;23.60;58.60;;;;;;222326;1263;22623;-54
2023/04/25 17:50:00;;;;;;;16.00;9.60;;;23.60;58.50;;;;;;222567;1263;25486;-51
2023/04/25 17:55:07;;;;;;;19.80;10.00;;;23.60;58.70;;;;;;222322;1263;22511;-54
2023/04/25 18:00:12;;;;;;;16.40;10.60;;;23.50;59.20;;;;;;222204;1263;24327;-52
2023/04/25 18:05:19;;;;;;;19.90;10.10;;;23.50;59.00;;;;;;222146;1263;22512;-55
2023/04/25 18:10:24;;;;;;;16.10;9.40;;;23.40;58.80;;;;;;222430;1263;25320;-48
2023/04/25 18:15:29;;;;;;;17.40;9.20;;;23.40;59.00;;;;;;222121;1263;24355;-52
2023/04/25 18:20:35;;;;;;;13.20;8.80;;;23.40;59.00;;;;;;222097;1266;22627;-50
2023/04/25 18:25:40;;;;;;;22.20;9.40;;;23.40;58.60;;;;;;221704;1266;233390;-46
2023/04/25 18:30:46;;;;;;;16.00;9.20;;;23.40;58.80;;;;;;222109;1259;24357;-52
2023/04/25 18:35:53;;;;;;;13.50;8.20;;;23.40;58.40;;;;;;221959;1263;23006;-51
2023/04/25 18:41:05;;;;;;;18.20;8.80;;;23.40;58.50;;;;;;222234;1263;24365;-49
2023/04/25 18:46:31;;;;;;;18.60;10.70;;;23.50;58.80;;;;;;222204;1263;22782;-49
2023/04/25 18:51:37;;;;;;;18.20;9.40;;;23.50;59.90;;;;;;222159;1254;22526;-48
2023/04/25 18:56:43;;;;;;;17.90;11.00;;;23.50;61.20;;;;;;221796;1254;24216;-48
2023/04/25 19:01:51;;;;;;;21.20;9.80;;;23.60;61.60;;;;;;222081;1247;23919;-50
2023/04/25 19:06:58;;;;;;;18.80;9.70;;;23.50;62.00;;;;;;222038;1258;22518;-48
2023/04/25 19:12:04;;;;;;;18.50;11.10;;;23.50;62.40;;;;;;222205;1263;26516;-50
2023/04/25 19:17:11;;;;;;;17.40;9.90;;;23.60;63.10;;;;;;222290;1263;23345;-52
2023/04/25 19:22:19;;;;;;;14.00;8.40;;;23.60;62.40;;;;;;222329;1266;22588;-48
2023/04/25 19:27:24;;;;;;;16.40;9.20;;;23.50;61.90;;;;;;222250;1263;24183;-50
2023/04/25 19:32:31;;;;;;;16.90;8.00;;;23.50;61.40;;;;;;222197;1263;22522;-50
2023/04/25 19:37:37;;;;;;;18.90;8.30;;;23.40;61.60;;;;;;222032;1266;23601;-47
2023/04/25 19:42:44;;;;;;;16.40;7.70;;;23.30;62.10;;;;;;222148;1264;26502;-50
2023/04/25 19:47:50;;;;;;;14.80;8.60;;;23.30;62.10;;;;;;221964;1266;24348;-48
2023/04/25 19:52:57;;;;;;;15.30;7.60;;;23.30;61.70;;;;;;222306;1263;22522;-52
2023/04/25 19:58:05;;;;;;;21.60;9.20;;;23.30;61.40;;;;;;222360;1257;24180;-46
2023/04/25 20:03:11;;;;;;;29.20;11.20;;;23.30;62.00;;;;;;222176;1262;22519;-45
2023/04/25 20:08:45;;;;;;;93.70;34.30;;;23.30;61.50;;;;;;222089;1266;22518;-50
2023/04/25 20:14:04;;;;;;;94.10;35.00;;;23.20;62.20;;;;;;222479;1256;24164;-49
2023/04/25 20:19:11;;;;;;;113.30;41.10;;;23.30;61.80;;;;;;222345;1269;24164;-47
2023/04/25 20:24:16;;;;;;;110.80;41.90;;;23.30;61.50;;;;;;222234;1266;25321;-49
2023/04/25 20:29:22;;;;;;;98.80;40.10;;;23.30;61.80;;;;;;222134;1263;24183;-51
2023/04/25 20:34:28;;;;;;;108.70;40.50;;;23.10;62.10;;;;;;222408;1254;22526;-50
2023/04/25 20:39:34;;;;;;;100.10;37.10;;;23.10;62.30;;;;;;222336;1266;26506;-47
2023/04/25 20:44:39;;;;;;;92.60;35.80;;;23.00;62.80;;;;;;222211;1263;22627;-50
2023/04/25 20:49:44;;;;;;;84.00;34.40;;;23.00;62.60;;;;;;222281;1261;22623;-47
2023/04/25 20:54:51;;;;;;;84.90;33.80;;;23.00;62.70;;;;;;222298;1248;23889;-51
2023/04/25 20:59:56;;;;;;;84.40;34.60;;;23.10;62.80;;;;;;222565;1265;22605;-49
2023/04/25 21:05:00;;;;;;;83.00;33.40;;;23.00;62.70;;;;;;222178;1263;24242;-48
2023/04/25 21:10:05;;;;;;;82.20;32.50;;;23.00;62.80;;;;;;222451;1255;25328;-48
2023/04/25 21:15:11;;;;;;;71.70;30.70;;;22.90;62.80;;;;;;222295;1253;23892;-48
2023/04/25 21:20:17;;;;;;;70.80;30.60;;;23.00;62.70;;;;;;222394;1253;22508;-48
2023/04/25 21:25:32;;;;;;;64.00;27.70;;;23.10;63.00;;;;;;222341;1257;25541;-48
2023/04/25 21:30:43;;;;;;;56.90;24.50;;;23.20;62.70;;;;;;222350;1264;24227;-49
2023/04/25 21:35:49;;;;;;;43.50;22.90;;;23.70;61.80;;;;;;222450;1255;24192;-48
2023/04/25 21:40:57;;;;;;;44.10;22.10;;;23.90;61.10;;;;;;222408;1260;22540;-47
2023/04/25 21:46:07;;;;;;;45.20;21.40;;;24.00;61.10;;;;;;222298;1260;22525;-48
2023/04/25 21:51:28;;;;;;;45.80;21.50;;;24.10;60.90;;;;;;222530;1263;22517;-47
2023/04/25 21:56:41;;;;;;;41.00;19.90;;;24.20;60.40;;;;;;222288;1263;25398;-46
2023/04/25 22:01:55;;;;;;;39.00;19.80;;;24.20;60.10;;;;;;222495;1260;22510;-48
2023/04/25 22:07:09;;;;;;;42.60;19.50;;;24.30;60.30;;;;;;222709;1264;22507;-50
2023/04/25 22:12:21;;;;;;;33.80;18.40;;;24.40;59.80;;;;;;222434;1261;24387;-48
2023/04/25 22:18:15;;;;;;;37.30;18.90;;;24.40;59.70;;;;;;222429;1266;25297;-47
2023/04/25 22:23:19;;;;;;;35.20;18.70;;;24.50;59.50;;;;;;222485;1263;23230;-49
2023/04/25 22:28:24;;;;;;;32.00;17.00;;;24.40;59.40;;;;;;222279;1263;24324;-48
2023/04/25 22:33:32;;;;;;;36.90;16.20;;;24.40;59.30;;;;;;222214;1261;22512;-51
2023/04/25 22:38:39;;;;;;;42.90;17.30;;;24.30;59.70;;;;;;222389;1263;24324;-51
2023/04/25 22:43:43;;;;;;;36.50;18.20;;;24.20;60.00;;;;;;222367;1259;24310;-48
2023/04/25 22:48:48;;;;;;;40.10;17.50;;;24.20;60.10;;;;;;222423;1260;24100;-46
2023/04/25 22:53:52;;;;;;;28.30;15.60;;;24.10;60.70;;;;;;222591;1254;24227;-50
2023/04/25 22:58:57;;;;;;;30.50;16.50;;;24.10;61.00;;;;;;222407;1263;22520;-49
2023/04/25 23:04:01;;;;;;;27.20;15.30;;;24.00;61.10;;;;;;222542;1260;22522;-51
2023/04/25 23:09:09;;;;;;;29.20;16.80;;;23.90;60.90;;;;;;222705;1266;24366;-47
2023/04/25 23:14:15;;;;;;;30.40;15.00;;;23.90;61.50;;;;;;222323;1264;22511;-46
2023/04/25 23:19:20;;;;;;;26.50;14.40;;;23.80;61.40;;;;;;222468;1259;24256;-47
2023/04/25 23:24:25;;;;;;;28.60;15.20;;;23.70;61.40;;;;;;222432;1258;22530;-49
2023/04/25 23:29:33;;;;;;;31.00;15.10;;;23.70;61.50;;;;;;222218;1263;22525;-46
2023/04/25 23:34:37;;;;;;;27.20;14.60;;;23.70;61.40;;;;;;222474;1263;22660;-50
2023/04/25 23:39:50;;;;;;;30.50;14.20;;;23.70;61.50;;;;;;222661;1260;25262;-47
2023/04/25 23:44:55;;;;;;;26.70;13.90;;;23.60;61.60;;;;;;222384;1261;23016;-47
2023/04/25 23:50:02;;;;;;;28.10;14.30;;;23.50;61.60;;;;;;222419;1254;22517;-47
2023/04/25 23:55:06;;;;;;;26.20;13.90;;;23.40;61.50;;;;;;222492;1264;23013;-51
